Time,TemperatureF,DewpointF,PressureIn,WindDirection,WindDirectionDegrees,WindSpeedMPH,WindSpeedGustMPH,Humidity,HourlyPrecipIn,Conditions,Clouds,dailyrainin,SoftwareType,DateUTC
2013-07-26 00:00:00,65.1,54.9,0.00,NE,49,6.9,-999.0,69,0.00,,,-99.99,,2013-07-26 08:00:00,
2013-07-26 00:05:00,65.1,54.8,0.00,NE,54,6.2,-999.0,69,0.00,,,-99.99,,2013-07-26 08:05:00,
2013-07-26 00:10:00,64.9,54.9,0.00,NE,54,5.5,-999.0,69,0.00,,,-99.99,,2013-07-26 08:10:00,
2013-07-26 00:15:00,64.5,54.8,0.00,NE,56,4.2,-999.0,70,0.00,,,-99.99,,2013-07-26 08:15:00,
2013-07-26 00:20:00,64.7,54.9,0.00,East,97,2.8,-999.0,70,0.00,,,-99.99,,2013-07-26 08:20:00,
2013-07-26 00:25:00,64.8,54.9,0.00,East,88,2.9,-999.0,70,0.00,,,-99.99,,2013-07-26 08:25:00,
2013-07-26 00:30:00,64.9,54.8,0.00,East,93,2.5,-999.0,69,0.00,,,-99.99,,2013-07-26 08:30:00,
2013-07-26 00:35:00,64.8,54.7,0.00,East,84,2.8,-999.0,69,0.00,,,-99.99,,2013-07-26 08:35:00,
2013-07-26 00:40:00,65.1,54.8,0.00,ENE,74,4.0,-999.0,69,0.00,,,-99.99,,2013-07-26 08:40:00,
2013-07-26 00:45:00,65.0,55.0,0.00,ENE,63,5.4,-999.0,69,0.00,,,-99.99,,2013-07-26 08:45:00,
2013-07-26 00:50:00,65.2,55.3,0.00,NE,52,7.5,-999.0,70,0.00,,,-99.99,,2013-07-26 08:50:00,
2013-07-26 00:55:00,65.2,55.2,0.00,NE,49,7.6,-999.0,69,0.00,,,-99.99,,2013-07-26 08:55:00,
2013-07-26 01:00:00,65.4,55.3,0.00,NE,43,9.1,-999.0,69,0.00,,,-99.99,,2013-07-26 09:00:00,
2013-07-26 01:05:00,65.0,55.3,0.00,NE,52,9.7,-999.0,70,0.00,,,-99.99,,2013-07-26 09:05:00,
2013-07-26 01:10:00,64.6,55.3,0.00,NE,56,7.8,-999.0,71,0.00,,,-99.99,,2013-07-26 09:10:00,
2013-07-26 01:15:00,64.7,55.4,0.00,ENE,57,8.8,-999.0,71,0.00,,,-99.99,,2013-07-26 09:15:00,
2013-07-26 01:20:00,64.3,55.4,0.00,ENE,57,9.4,-999.0,72,0.00,,,-99.99,,2013-07-26 09:20:00,
2013-07-26 01:25:00,64.6,55.2,0.00,NE,56,7.8,-999.0,71,0.00,,,-99.99,,2013-07-26 09:25:00,
2013-07-26 01:30:00,65.7,55.2,0.00,East,79,6.1,-999.0,68,0.00,,,-99.99,,2013-07-26 09:30:00,
2013-07-26 01:35:00,64.9,55.2,0.00,East,79,4.7,-999.0,70,0.00,,,-99.99,,2013-07-26 09:35:00,
2013-07-26 01:40:00,65.6,55.2,0.00,East,89,3.3,-999.0,69,0.00,,,-99.99,,2013-07-26 09:40:00,
2013-07-26 01:45:00,65.3,54.5,0.00,East,83,3.8,-999.0,67,0.00,,,-99.99,,2013-07-26 09:45:00,
2013-07-26 01:50:00,65.7,54.4,0.00,ENE,78,1.6,-999.0,66,0.00,,,-99.99,,2013-07-26 09:50:00,
2013-07-26 01:55:00,65.6,54.0,0.00,East,84,2.4,-999.0,66,0.00,,,-99.99,,2013-07-26 09:55:00,
2013-07-26 02:00:00,65.3,54.3,0.00,ENE,61,2.9,-999.0,67,0.00,,,-99.99,,2013-07-26 10:00:00,
2013-07-26 02:05:00,65.2,54.2,0.00,ENE,65,3.3,-999.0,67,0.00,,,-99.99,,2013-07-26 10:05:00,
2013-07-26 02:10:00,65.1,54.0,0.00,ENE,65,2.1,-999.0,67,0.00,,,-99.99,,2013-07-26 10:10:00,
2013-07-26 02:15:00,65.2,54.6,0.00,ENE,61,1.7,-999.0,68,0.00,,,-99.99,,2013-07-26 10:15:00,
2013-07-26 02:20:00,64.7,54.9,0.00,ENE,73,2.0,-999.0,70,0.00,,,-99.99,,2013-07-26 10:20:00,
2013-07-26 02:25:00,64.3,54.5,0.00,NE,54,1.3,-999.0,70,0.00,,,-99.99,,2013-07-26 10:25:00,
2013-07-26 02:30:00,64.3,54.8,0.00,East,81,0.0,-999.0,71,0.00,,,-99.99,,2013-07-26 10:30:00,
2013-07-26 02:36:00,63.8,55.0,0.00,South,172,1.4,-999.0,73,0.00,,,-99.99,,2013-07-26 10:36:00,
2013-07-26 02:43:00,62.9,54.6,0.00,WNW,289,0.0,-999.0,74,0.00,,,-99.99,,2013-07-26 10:43:00,
2013-07-26 02:48:00,63.1,54.9,0.00,SSE,156,0.0,-999.0,74,0.00,,,-99.99,,2013-07-26 10:48:00,
2013-07-26 02:53:00,63.0,54.9,0.00,ESE,104,1.0,-999.0,74,0.00,,,-99.99,,2013-07-26 10:53:00,
2013-07-26 02:58:00,62.3,55.0,0.00,East,101,1.3,-999.0,77,0.00,,,-99.99,,2013-07-26 10:58:00,
2013-07-26 03:03:00,62.4,55.0,0.00,ESE,116,0.0,-999.0,76,0.00,,,-99.99,,2013-07-26 11:03:00,
2013-07-26 03:08:00,62.3,54.9,0.00,East,95,0.0,-999.0,76,0.00,,,-99.99,,2013-07-26 11:08:00,
2013-07-26 03:13:00,62.2,54.8,0.00,NNE,28,0.0,-999.0,76,0.00,,,-99.99,,2013-07-26 11:13:00,
2013-07-26 03:18:00,62.5,54.8,0.00,NNW,336,1.0,-999.0,76,0.00,,,-99.99,,2013-07-26 11:18:00,
2013-07-26 03:23:00,62.7,55.0,0.00,NW,308,1.2,-999.0,76,0.00,,,-99.99,,2013-07-26 11:23:00,
2013-07-26 03:28:00,62.7,55.0,0.00,NNW,341,2.8,-999.0,75,0.00,,,-99.99,,2013-07-26 11:28:00,
2013-07-26 03:33:00,63.4,54.9,0.00,North,10,3.9,-999.0,73,0.00,,,-99.99,,2013-07-26 11:33:00,
2013-07-26 03:38:00,63.1,54.9,0.00,North,349,4.5,-999.0,74,0.00,,,-99.99,,2013-07-26 11:38:00,
2013-07-26 03:43:00,62.0,54.9,0.00,NNW,337,4.8,-999.0,77,0.00,,,-99.99,,2013-07-26 11:43:00,
2013-07-26 03:48:00,61.4,55.1,0.00,North,4,6.9,-999.0,79,0.00,,,-99.99,,2013-07-26 11:48:00,
2013-07-26 03:53:00,61.4,55.1,0.00,NNE,30,9.9,-999.0,79,0.00,,,-99.99,,2013-07-26 11:53:00,
2013-07-26 03:58:00,61.5,54.8,0.00,NNE,22,9.7,-999.0,78,0.00,,,-99.99,,2013-07-26 11:58:00,
2013-07-26 04:03:00,61.2,54.9,0.00,NE,36,10.3,-999.0,79,0.00,,,-99.99,,2013-07-26 12:03:00,
2013-07-26 04:08:00,60.8,55.0,0.00,NE,42,8.1,-999.0,81,0.00,,,-99.99,,2013-07-26 12:08:00,
2013-07-26 04:13:00,59.5,54.9,0.00,NE,44,6.2,-999.0,84,0.00,,,-99.99,,2013-07-26 12:13:00,
2013-07-26 04:18:00,59.1,55.0,0.00,NE,50,6.8,-999.0,86,0.00,,,-99.99,,2013-07-26 12:18:00,
2013-07-26 04:23:00,58.6,54.9,0.00,NE,50,8.1,-999.0,87,0.00,,,-99.99,,2013-07-26 12:23:00,
2013-07-26 04:28:00,58.5,54.7,0.00,ENE,58,7.4,-999.0,87,0.00,,,-99.99,,2013-07-26 12:28:00,
2013-07-26 04:33:00,58.9,54.9,0.00,ENE,61,7.1,-999.0,86,0.00,,,-99.99,,2013-07-26 12:33:00,
2013-07-26 04:38:00,59.6,55.0,0.00,NE,56,5.6,-999.0,84,0.00,,,-99.99,,2013-07-26 12:38:00,
2013-07-26 04:43:00,59.8,54.9,0.00,NE,51,6.1,-999.0,83,0.00,,,-99.99,,2013-07-26 12:43:00,
2013-07-26 04:48:00,59.8,54.9,0.00,ENE,78,4.3,-999.0,83,0.00,,,-99.99,,2013-07-26 12:48:00,
2013-07-26 04:53:00,59.8,55.0,0.00,East,93,5.0,-999.0,83,0.00,,,-99.99,,2013-07-26 12:53:00,
2013-07-26 04:58:00,59.7,54.9,0.00,SE,125,3.3,-999.0,84,0.00,,,-99.99,,2013-07-26 12:58:00,
2013-07-26 05:03:00,59.7,54.8,0.00,SE,129,3.1,-999.0,83,0.00,,,-99.99,,2013-07-26 13:03:00,
2013-07-26 05:08:00,59.7,54.8,0.00,SE,143,4.1,-999.0,84,0.00,,,-99.99,,2013-07-26 13:08:00,
2013-07-26 05:13:00,59.3,54.7,0.00,SE,138,2.8,-999.0,84,0.00,,,-99.99,,2013-07-26 13:13:00,
2013-07-26 05:18:00,58.9,54.8,0.00,SE,130,1.9,-999.0,86,0.00,,,-99.99,,2013-07-26 13:18:00,
2013-07-26 05:23:00,58.9,54.7,0.00,South,187,1.3,-999.0,85,0.00,,,-99.99,,2013-07-26 13:23:00,
2013-07-26 05:28:00,58.7,54.6,0.00,SSE,152,0.7,-999.0,86,0.00,,,-99.99,,2013-07-26 13:28:00,
2013-07-26 05:33:00,59.0,54.8,0.00,North,354,0.0,-999.0,86,0.00,,,-99.99,,2013-07-26 13:33:00,
2013-07-26 05:38:00,59.9,54.8,0.00,NW,324,1.8,-999.0,83,0.00,,,-99.99,,2013-07-26 13:38:00,
2013-07-26 05:43:00,59.8,54.8,0.00,NNW,337,0.0,-999.0,83,0.00,,,-99.99,,2013-07-26 13:43:00,
2013-07-26 05:48:00,59.9,54.9,0.00,WSW,250,0.0,-999.0,83,0.00,,,-99.99,,2013-07-26 13:48:00,
2013-07-26 05:53:00,59.7,54.8,0.00,NW,318,2.0,-999.0,83,0.00,,,-99.99,,2013-07-26 13:53:00,
2013-07-26 05:58:00,59.8,54.8,0.00,North,3,2.1,-999.0,83,0.00,,,-99.99,,2013-07-26 13:58:00,
2013-07-26 06:03:00,60.0,55.0,0.00,East,87,3.7,-999.0,83,0.00,,,-99.99,,2013-07-26 14:03:00,
2013-07-26 06:08:00,59.1,54.8,0.00,NNE,31,2.9,-999.0,85,0.00,,,-99.99,,2013-07-26 14:08:00,
2013-07-26 06:13:00,59.2,54.7,0.00,NNW,327,3.3,-999.0,85,0.00,,,-99.99,,2013-07-26 14:13:00,
2013-07-26 06:18:00,58.9,54.9,0.00,North,0,1.7,-999.0,86,0.00,,,-99.99,,2013-07-26 14:18:00,
2013-07-26 06:23:00,58.5,54.6,0.00,NW,318,0.0,-999.0,87,0.00,,,-99.99,,2013-07-26 14:23:00,
2013-07-26 06:28:00,58.6,54.7,0.00,NNE,24,0.0,-999.0,86,0.00,,,-99.99,,2013-07-26 14:28:00,
2013-07-26 06:33:00,58.7,54.8,0.00,SE,140,0.4,-999.0,86,0.00,,,-99.99,,2013-07-26 14:33:00,
2013-07-26 06:38:00,58.3,54.6,0.00,SSE,167,1.4,-999.0,87,0.00,,,-99.99,,2013-07-26 14:38:00,
2013-07-26 06:43:00,58.2,54.6,0.00,SSE,168,2.8,-999.0,87,0.00,,,-99.99,,2013-07-26 14:43:00,
2013-07-26 06:48:00,57.7,54.5,0.00,SE,142,1.7,-999.0,88,0.00,,,-99.99,,2013-07-26 14:48:00,
2013-07-26 06:53:00,58.1,54.7,0.00,SSE,166,2.8,-999.0,88,0.00,,,-99.99,,2013-07-26 14:53:00,
2013-07-26 06:58:00,58.2,54.6,0.00,SSE,151,1.5,-999.0,87,0.00,,,-99.99,,2013-07-26 14:58:00,
2013-07-26 07:03:00,58.5,54.7,0.00,SSE,153,3.2,-999.0,87,0.00,,,-99.99,,2013-07-26 15:03:00,
2013-07-26 07:08:00,58.2,54.7,0.00,SE,146,2.0,-999.0,88,0.00,,,-99.99,,2013-07-26 15:08:00,
2013-07-26 07:13:00,58.8,54.8,0.00,South,178,1.7,-999.0,86,0.00,,,-99.99,,2013-07-26 15:13:00,
2013-07-26 07:18:00,59.5,54.9,0.00,South,171,2.1,-999.0,84,0.00,,,-99.99,,2013-07-26 15:18:00,
2013-07-26 07:23:00,59.4,54.9,0.00,NW,307,1.0,-999.0,85,0.00,,,-99.99,,2013-07-26 15:23:00,
2013-07-26 07:28:00,58.6,54.6,0.00,South,176,2.3,-999.0,86,0.00,,,-99.99,,2013-07-26 15:28:00,
2013-07-26 07:34:00,59.0,55.0,0.00,SSE,160,2.1,-999.0,86,0.00,,,-99.99,,2013-07-26 15:34:00,
2013-07-26 07:39:00,58.4,54.7,0.00,ESE,110,0.0,-999.0,87,0.00,,,-99.99,,2013-07-26 15:39:00,
2013-07-26 07:44:00,58.1,54.7,0.00,ESE,111,1.8,-999.0,88,0.00,,,-99.99,,2013-07-26 15:44:00,
2013-07-26 07:49:00,58.2,54.9,0.00,NNE,20,2.1,-999.0,88,0.00,,,-99.99,,2013-07-26 15:49:00,
2013-07-26 07:54:00,58.2,55.1,0.00,NW,322,2.4,-999.0,89,0.00,,,-99.99,,2013-07-26 15:54:00,
2013-07-26 08:00:00,57.7,54.9,0.00,NW,312,1.0,-999.0,90,0.00,,,-99.99,,2013-07-26 16:00:00,
2013-07-26 08:06:00,57.6,55.3,0.00,SE,143,2.7,-999.0,92,0.00,,,-99.99,,2013-07-26 16:06:00,
2013-07-26 08:12:00,56.7,55.1,0.00,North,5,1.8,-999.0,94,0.00,,,-99.99,,2013-07-26 16:12:00,
2013-07-26 08:17:00,57.4,55.8,0.00,NNE,31,0.4,-999.0,94,0.00,,,-99.99,,2013-07-26 16:17:00,
2013-07-26 08:22:00,57.7,55.7,0.00,NW,309,1.5,-999.0,93,0.00,,,-99.99,,2013-07-26 16:22:00,
2013-07-26 08:27:00,57.5,55.0,0.00,NW,323,1.8,-999.0,91,0.00,,,-99.99,,2013-07-26 16:27:00,
2013-07-26 08:33:00,58.0,54.7,0.00,NNW,330,1.5,-999.0,88,0.00,,,-99.99,,2013-07-26 16:33:00,
2013-07-26 08:38:00,58.8,56.2,0.00,NNE,14,0.0,-999.0,90,0.00,,,-99.99,,2013-07-26 16:38:00,
2013-07-26 08:43:00,59.1,55.7,0.00,NNW,348,0.5,-999.0,88,0.00,,,-99.99,,2013-07-26 16:43:00,
2013-07-26 08:48:00,59.0,55.8,0.00,South,172,1.4,-999.0,89,0.00,,,-99.99,,2013-07-26 16:48:00,
2013-07-26 08:53:00,57.9,55.6,0.00,South,178,2.8,-999.0,92,0.00,,,-99.99,,2013-07-26 16:53:00,
2013-07-26 08:58:00,56.8,55.2,0.00,SE,127,1.7,-999.0,94,0.00,,,-99.99,,2013-07-26 16:58:00,
2013-07-26 09:03:00,56.8,55.5,0.00,ENE,75,0.4,-999.0,95,0.00,,,-99.99,,2013-07-26 17:03:00,
2013-07-26 09:08:00,57.9,56.4,0.00,SW,228,0.0,-999.0,94,0.00,,,-99.99,,2013-07-26 17:08:00,
2013-07-26 09:13:00,58.9,56.4,0.00,South,172,1.3,-999.0,91,0.00,,,-99.99,,2013-07-26 17:13:00,
2013-07-26 09:18:00,58.3,55.5,0.00,SSE,151,1.9,-999.0,90,0.00,,,-99.99,,2013-07-26 17:18:00,
2013-07-26 09:23:00,57.7,55.7,0.00,ENE,67,1.4,-999.0,92,0.00,,,-99.99,,2013-07-26 17:23:00,
2013-07-26 09:28:00,57.2,54.1,0.00,South,170,2.9,-999.0,89,0.00,,,-99.99,,2013-07-26 17:28:00,
2013-07-26 09:33:00,57.1,55.2,0.00,North,354,0.4,-999.0,93,0.00,,,-99.99,,2013-07-26 17:33:00,
2013-07-26 09:38:00,57.3,54.8,0.00,NW,321,2.2,-999.0,91,0.00,,,-99.99,,2013-07-26 17:38:00,
2013-07-26 09:43:00,56.7,53.5,0.00,SSE,147,0.0,-999.0,89,0.00,,,-99.99,,2013-07-26 17:43:00,
2013-07-26 09:48:00,56.5,54.6,0.00,NNE,19,1.8,-999.0,93,0.00,,,-99.99,,2013-07-26 17:48:00,
2013-07-26 09:53:00,56.3,54.1,0.00,NW,318,3.4,-999.0,92,0.00,,,-99.99,,2013-07-26 17:53:00,
2013-07-26 09:58:00,55.9,54.0,0.00,NW,314,2.1,-999.0,93,0.00,,,-99.99,,2013-07-26 17:58:00,
2013-07-26 10:03:00,56.5,54.8,0.00,North,349,3.4,-999.0,94,0.00,,,-99.99,,2013-07-26 18:03:00,
2013-07-26 10:08:00,56.8,54.8,0.00,West,270,1.9,-999.0,93,0.00,,,-99.99,,2013-07-26 18:08:00,
2013-07-26 10:13:00,57.5,55.4,0.00,NNW,346,0.0,-999.0,92,0.00,,,-99.99,,2013-07-26 18:13:00,
2013-07-26 10:18:00,57.9,55.0,0.00,NW,310,1.0,-999.0,90,0.00,,,-99.99,,2013-07-26 18:18:00,
2013-07-26 10:23:00,58.3,55.5,0.00,North,0,1.3,-999.0,90,0.00,,,-99.99,,2013-07-26 18:23:00,
2013-07-26 10:28:00,58.3,55.2,0.00,West,273,0.0,-999.0,89,0.00,,,-99.99,,2013-07-26 18:28:00,
2013-07-26 10:33:00,57.7,54.4,0.00,NW,309,0.3,-999.0,88,0.00,,,-99.99,,2013-07-26 18:33:00,
2013-07-26 10:38:00,58.1,55.2,0.00,NW,322,0.0,-999.0,90,0.00,,,-99.99,,2013-07-26 18:38:00,
2013-07-26 10:43:00,59.0,55.6,0.00,SW,228,0.0,-999.0,88,0.00,,,-99.99,,2013-07-26 18:43:00,
2013-07-26 10:48:00,58.7,55.0,0.00,West,281,1.6,-999.0,87,0.00,,,-99.99,,2013-07-26 18:48:00,
2013-07-26 10:53:00,57.9,54.5,0.00,SSE,156,2.2,-999.0,88,0.00,,,-99.99,,2013-07-26 18:53:00,
2013-07-26 10:58:00,57.4,54.0,0.00,West,268,1.7,-999.0,88,0.00,,,-99.99,,2013-07-26 18:58:00,
2013-07-26 11:03:00,57.2,54.5,0.00,SE,134,1.1,-999.0,90,0.00,,,-99.99,,2013-07-26 19:03:00,
2013-07-26 11:08:00,58.3,55.4,0.00,South,171,2.5,-999.0,90,0.00,,,-99.99,,2013-07-26 19:08:00,
2013-07-26 11:13:00,59.1,55.3,0.00,SW,216,2.3,-999.0,87,0.00,,,-99.99,,2013-07-26 19:13:00,
2013-07-26 11:18:00,59.7,55.3,0.00,South,170,3.3,-999.0,85,0.00,,,-99.99,,2013-07-26 19:18:00,
2013-07-26 11:23:00,59.6,55.1,0.00,South,175,3.2,-999.0,85,0.00,,,-99.99,,2013-07-26 19:23:00,
2013-07-26 11:28:00,59.4,55.3,0.00,South,174,4.5,-999.0,86,0.00,,,-99.99,,2013-07-26 19:28:00,
2013-07-26 11:33:00,59.0,55.2,0.00,South,186,3.3,-999.0,87,0.00,,,-99.99,,2013-07-26 19:33:00,
2013-07-26 11:38:00,59.1,55.4,0.00,South,182,3.8,-999.0,87,0.00,,,-99.99,,2013-07-26 19:38:00,
2013-07-26 11:43:00,59.0,55.3,0.00,West,271,2.6,-999.0,87,0.00,,,-99.99,,2013-07-26 19:43:00,
2013-07-26 11:48:00,58.5,55.1,0.00,South,180,3.5,-999.0,88,0.00,,,-99.99,,2013-07-26 19:48:00,
2013-07-26 11:53:00,58.6,54.9,0.00,SSW,208,2.7,-999.0,87,0.00,,,-99.99,,2013-07-26 19:53:00,
2013-07-26 11:58:00,58.3,54.6,0.00,SSE,165,4.7,-999.0,87,0.00,,,-99.99,,2013-07-26 19:58:00,
2013-07-26 12:03:00,58.2,54.6,0.00,SSE,153,3.7,-999.0,87,0.00,,,-99.99,,2013-07-26 20:03:00,
2013-07-26 12:09:00,58.9,54.9,0.00,South,171,5.8,-999.0,86,0.00,,,-99.99,,2013-07-26 20:09:00,
2013-07-26 12:14:00,58.9,54.8,0.00,South,186,3.2,-999.0,86,0.00,,,-99.99,,2013-07-26 20:14:00,
2013-07-26 12:19:00,59.8,55.5,0.00,SSE,163,6.1,-999.0,85,0.00,,,-99.99,,2013-07-26 20:19:00,
2013-07-26 12:24:00,59.9,55.6,0.00,SSW,199,4.9,-999.0,85,0.00,,,-99.99,,2013-07-26 20:24:00,
2013-07-26 12:29:00,60.2,54.5,0.00,SSW,203,1.8,-999.0,81,0.00,,,-99.99,,2013-07-26 20:29:00,
2013-07-26 12:34:00,59.8,54.7,0.00,SW,234,2.2,-999.0,83,0.00,,,-99.99,,2013-07-26 20:34:00,
2013-07-26 12:39:00,59.0,54.2,0.00,SW,231,2.3,-999.0,84,0.00,,,-99.99,,2013-07-26 20:39:00,
2013-07-26 12:44:00,58.4,54.4,0.00,South,175,3.5,-999.0,86,0.00,,,-99.99,,2013-07-26 20:44:00,
2013-07-26 12:49:00,57.7,53.7,0.00,SSW,201,2.8,-999.0,86,0.00,,,-99.99,,2013-07-26 20:49:00,
2013-07-26 12:54:00,57.7,54.2,0.00,SSE,168,5.2,-999.0,88,0.00,,,-99.99,,2013-07-26 20:54:00,
2013-07-26 13:00:00,57.7,54.1,0.00,SSE,150,4.0,-999.0,87,0.00,,,-99.99,,2013-07-26 21:00:00,
2013-07-26 13:05:00,57.7,54.2,0.00,SE,132,1.0,-999.0,88,0.00,,,-99.99,,2013-07-26 21:05:00,
2013-07-26 13:10:00,58.0,54.0,0.00,SSE,166,3.7,-999.0,86,0.00,,,-99.99,,2013-07-26 21:10:00,
2013-07-26 13:15:00,58.3,54.7,0.00,South,169,2.1,-999.0,88,0.00,,,-99.99,,2013-07-26 21:15:00,
2013-07-26 13:20:00,58.0,54.1,0.00,SSE,148,2.4,-999.0,86,0.00,,,-99.99,,2013-07-26 21:20:00,
2013-07-26 13:25:00,57.5,54.0,0.00,SSE,155,3.4,-999.0,88,0.00,,,-99.99,,2013-07-26 21:25:00,
2013-07-26 13:30:00,57.1,53.9,0.00,SSE,152,3.4,-999.0,89,0.00,,,-99.99,,2013-07-26 21:30:00,
2013-07-26 13:36:00,57.2,54.3,0.00,South,177,3.2,-999.0,89,0.00,,,-99.99,,2013-07-26 21:36:00,
2013-07-26 13:43:00,57.4,54.5,0.00,SSE,155,4.0,-999.0,90,0.00,,,-99.99,,2013-07-26 21:43:00,
2013-07-26 13:48:00,57.7,54.4,0.00,SE,143,4.7,-999.0,88,0.00,,,-99.99,,2013-07-26 21:48:00,
2013-07-26 13:53:00,57.7,54.4,0.00,SSE,153,3.8,-999.0,88,0.00,,,-99.99,,2013-07-26 21:53:00,
2013-07-26 13:58:00,58.0,54.5,0.00,SE,137,5.6,-999.0,88,0.00,,,-99.99,,2013-07-26 21:58:00,
2013-07-26 14:03:00,58.2,54.6,0.00,SSE,148,5.5,-999.0,87,0.00,,,-99.99,,2013-07-26 22:03:00,
2013-07-26 14:08:00,58.0,54.4,0.00,SSE,162,3.7,-999.0,87,0.00,,,-99.99,,2013-07-26 22:08:00,
2013-07-26 14:13:00,58.7,55.1,0.00,South,184,4.3,-999.0,87,0.00,,,-99.99,,2013-07-26 22:13:00,
2013-07-26 14:18:00,58.5,54.2,0.00,SSE,155,2.1,-999.0,85,0.00,,,-99.99,,2013-07-26 22:18:00,
2013-07-26 14:23:00,58.5,54.3,0.00,South,170,2.8,-999.0,85,0.00,,,-99.99,,2013-07-26 22:23:00,
2013-07-26 14:28:00,58.1,53.9,0.00,SW,232,3.9,-999.0,85,0.00,,,-99.99,,2013-07-26 22:28:00,
2013-07-26 14:33:00,57.0,54.2,0.00,West,260,1.7,-999.0,90,0.00,,,-99.99,,2013-07-26 22:33:00,
2013-07-26 14:35:00,56.8,53.9,0.00,WSW,258,1.8,-999.0,90,0.00,,,-99.99,,2013-07-26 22:35:00,
2013-07-26 14:40:00,58.1,54.3,0.00,South,186,4.0,-999.0,87,0.00,,,-99.99,,2013-07-26 22:40:00,
2013-07-26 14:45:00,58.4,54.1,0.00,South,179,3.9,-999.0,85,0.00,,,-99.99,,2013-07-26 22:45:00,
2013-07-26 14:50:00,57.9,54.2,0.00,SSE,148,3.2,-999.0,87,0.00,,,-99.99,,2013-07-26 22:50:00,
2013-07-26 14:55:00,58.0,54.3,0.00,South,174,2.0,-999.0,87,0.00,,,-99.99,,2013-07-26 22:55:00,
2013-07-26 15:00:00,58.8,54.6,0.00,SE,126,2.2,-999.0,86,0.00,,,-99.99,,2013-07-26 23:00:00,
2013-07-26 15:05:00,58.3,54.1,0.00,South,180,2.8,-999.0,86,0.00,,,-99.99,,2013-07-26 23:05:00,
2013-07-26 15:10:00,59.1,54.8,0.00,South,190,2.2,-999.0,85,0.00,,,-99.99,,2013-07-26 23:10:00,
2013-07-26 15:15:00,58.8,54.4,0.00,South,182,3.1,-999.0,85,0.00,,,-99.99,,2013-07-26 23:15:00,
2013-07-26 15:20:00,59.6,55.0,0.00,WSW,252,0.0,-999.0,84,0.00,,,-99.99,,2013-07-26 23:20:00,
2013-07-26 15:25:00,59.1,54.6,0.00,SW,236,3.0,-999.0,85,0.00,,,-99.99,,2013-07-26 23:25:00,
2013-07-26 15:30:00,58.9,54.9,0.00,SSW,213,2.5,-999.0,86,0.00,,,-99.99,,2013-07-26 23:30:00,
2013-07-26 15:35:00,57.5,53.6,0.00,WSW,254,1.3,-999.0,86,0.00,,,-99.99,,2013-07-26 23:35:00,
2013-07-26 15:40:00,58.3,54.6,0.00,South,178,4.4,-999.0,87,0.00,,,-99.99,,2013-07-26 23:40:00,
2013-07-26 15:45:00,59.4,55.7,0.00,WSW,254,3.6,-999.0,87,0.00,,,-99.99,,2013-07-26 23:45:00,
2013-07-26 15:50:00,58.2,53.9,0.00,WSW,257,1.5,-999.0,85,0.00,,,-99.99,,2013-07-26 23:50:00,
2013-07-26 15:57:00,57.5,53.8,0.00,WSW,237,3.5,-999.0,87,0.00,,,-99.99,,2013-07-26 23:57:00,
2013-07-26 16:02:00,56.6,53.1,0.00,WNW,298,2.7,-999.0,88,0.00,,,-99.99,,2013-07-27 00:02:00,
2013-07-26 16:07:00,55.4,52.8,0.00,WSW,246,0.6,-999.0,91,0.00,,,-99.99,,2013-07-27 00:07:00,
2013-07-26 16:13:00,56.2,53.6,0.00,SSW,193,0.5,-999.0,91,0.00,,,-99.99,,2013-07-27 00:13:00,
2013-07-26 16:18:00,57.0,53.7,0.00,SSE,155,4.6,-999.0,88,0.00,,,-99.99,,2013-07-27 00:18:00,
2013-07-26 16:23:00,56.8,53.9,0.00,South,184,0.4,-999.0,90,0.00,,,-99.99,,2013-07-27 00:23:00,
2013-07-26 16:28:00,57.4,54.0,0.00,SSE,149,1.7,-999.0,88,0.00,,,-99.99,,2013-07-27 00:28:00,
2013-07-26 16:33:00,55.5,52.8,0.00,WSW,250,3.2,-999.0,90,0.00,,,-99.99,,2013-07-27 00:33:00,
2013-07-26 16:40:00,56.7,54.3,0.00,East,94,1.6,-999.0,91,0.00,,,-99.99,,2013-07-27 00:40:00,
2013-07-26 16:45:00,56.0,53.0,0.00,SW,225,1.7,-999.0,89,0.00,,,-99.99,,2013-07-27 00:45:00,
2013-07-26 16:50:00,56.3,54.2,0.00,NE,53,0.0,-999.0,92,0.00,,,-99.99,,2013-07-27 00:50:00,
2013-07-26 16:55:00,57.6,54.7,0.00,SSE,148,4.2,-999.0,89,0.00,,,-99.99,,2013-07-27 00:55:00,
2013-07-26 17:00:00,56.8,53.8,0.00,SE,128,2.8,-999.0,89,0.00,,,-99.99,,2013-07-27 01:00:00,
2013-07-26 17:05:00,56.6,53.8,0.00,SSE,167,1.5,-999.0,90,0.00,,,-99.99,,2013-07-27 01:05:00,
2013-07-26 17:10:00,56.8,53.6,0.00,SW,236,0.8,-999.0,89,0.00,,,-99.99,,2013-07-27 01:10:00,
2013-07-26 17:18:00,57.2,53.8,0.00,SE,145,0.0,-999.0,88,0.00,,,-99.99,,2013-07-27 01:18:00,
2013-07-26 17:23:00,58.2,54.5,0.00,SW,222,0.0,-999.0,87,0.00,,,-99.99,,2013-07-27 01:23:00,
2013-07-26 17:28:00,58.5,54.2,0.00,SE,124,1.9,-999.0,85,0.00,,,-99.99,,2013-07-27 01:28:00,
2013-07-26 17:33:00,59.2,55.2,0.00,SSW,199,0.0,-999.0,86,0.00,,,-99.99,,2013-07-27 01:33:00,
2013-07-26 17:38:00,58.7,54.5,0.00,SSW,194,1.9,-999.0,85,0.00,,,-99.99,,2013-07-27 01:38:00,
2013-07-26 17:43:00,59.7,54.9,0.00,SSE,162,0.0,-999.0,84,0.00,,,-99.99,,2013-07-27 01:43:00,
2013-07-26 17:48:00,58.6,54.4,0.00,South,183,2.2,-999.0,85,0.00,,,-99.99,,2013-07-27 01:48:00,
2013-07-26 17:53:00,58.3,54.4,0.00,South,184,2.9,-999.0,86,0.00,,,-99.99,,2013-07-27 01:53:00,
2013-07-26 17:58:00,58.2,54.4,0.00,South,183,2.0,-999.0,87,0.00,,,-99.99,,2013-07-27 01:58:00,
2013-07-26 18:03:00,57.5,53.6,0.00,WSW,243,2.2,-999.0,86,0.00,,,-99.99,,2013-07-27 02:03:00,
2013-07-26 18:08:00,57.4,53.7,0.00,SSW,210,1.8,-999.0,87,0.00,,,-99.99,,2013-07-27 02:08:00,
2013-07-26 18:13:00,58.3,54.4,0.00,SSW,195,3.8,-999.0,87,0.00,,,-99.99,,2013-07-27 02:13:00,
2013-07-26 18:18:00,58.4,54.0,0.00,SSE,155,4.2,-999.0,85,0.00,,,-99.99,,2013-07-27 02:18:00,
2013-07-26 18:23:00,57.8,53.4,0.00,South,180,4.4,-999.0,85,0.00,,,-99.99,,2013-07-27 02:23:00,
2013-07-26 18:28:00,57.8,53.6,0.00,SSW,208,4.4,-999.0,86,0.00,,,-99.99,,2013-07-27 02:28:00,
2013-07-26 18:33:00,58.2,53.5,0.00,South,178,3.1,-999.0,84,0.00,,,-99.99,,2013-07-27 02:33:00,
2013-07-26 18:38:00,57.7,53.7,0.00,South,176,1.8,-999.0,86,0.00,,,-99.99,,2013-07-27 02:38:00,
2013-07-26 18:43:00,58.0,54.1,0.00,SSW,200,1.6,-999.0,86,0.00,,,-99.99,,2013-07-27 02:43:00,
2013-07-26 18:48:00,58.2,54.1,0.00,SW,229,1.2,-999.0,86,0.00,,,-99.99,,2013-07-27 02:48:00,
2013-07-26 18:53:00,58.6,54.4,0.00,West,266,1.0,-999.0,86,0.00,,,-99.99,,2013-07-27 02:53:00,
2013-07-26 18:58:00,58.7,54.5,0.00,West,259,0.0,-999.0,86,0.00,,,-99.99,,2013-07-27 02:58:00,
2013-07-26 19:03:00,58.5,54.3,0.00,South,171,1.0,-999.0,86,0.00,,,-99.99,,2013-07-27 03:03:00,
2013-07-26 19:08:00,58.9,54.9,0.00,NNW,332,0.0,-999.0,86,0.00,,,-99.99,,2013-07-27 03:08:00,
2013-07-26 19:13:00,59.0,54.5,0.00,WNW,283,0.6,-999.0,85,0.00,,,-99.99,,2013-07-27 03:13:00,
2013-07-26 19:18:00,58.9,54.2,0.00,NW,307,1.0,-999.0,84,0.00,,,-99.99,,2013-07-27 03:18:00,
2013-07-26 19:23:00,58.2,53.6,0.00,NW,304,1.8,-999.0,84,0.00,,,-99.99,,2013-07-27 03:23:00,
2013-07-26 19:28:00,58.2,53.2,0.00,WNW,284,1.9,-999.0,83,0.00,,,-99.99,,2013-07-27 03:28:00,
2013-07-26 19:33:00,58.2,53.5,0.00,WNW,300,1.3,-999.0,84,0.00,,,-99.99,,2013-07-27 03:33:00,
2013-07-26 19:38:00,58.4,53.7,0.00,WNW,296,0.0,-999.0,84,0.00,,,-99.99,,2013-07-27 03:38:00,
2013-07-26 19:43:00,58.9,54.9,0.00,SSE,159,2.3,-999.0,86,0.00,,,-99.99,,2013-07-27 03:43:00,
2013-07-26 19:48:00,57.9,54.6,0.00,East,92,0.0,-999.0,88,0.00,,,-99.99,,2013-07-27 03:48:00,
2013-07-26 19:53:00,58.4,54.3,0.00,WNW,285,0.4,-999.0,86,0.00,,,-99.99,,2013-07-27 03:53:00,
2013-07-26 19:58:00,58.3,54.1,0.00,NNW,342,0.0,-999.0,86,0.00,,,-99.99,,2013-07-27 03:58:00,
2013-07-26 20:01:00,58.3,54.2,0.00,NW,321,0.9,-999.0,86,0.00,,,-99.99,,2013-07-27 04:01:00,
2013-07-26 20:02:00,58.4,54.5,0.00,North,0,1.0,-999.0,86,0.00,,,-99.99,,2013-07-27 04:02:00,
2013-07-26 20:03:00,58.3,54.1,0.00,NW,325,0.4,-999.0,86,0.00,,,-99.99,,2013-07-27 04:03:00,
2013-07-26 20:04:00,58.3,54.1,0.00,NNW,332,0.0,-999.0,85,0.00,,,-99.99,,2013-07-27 04:04:00,
2013-07-26 20:08:00,58.2,54.2,0.00,NE,37,0.0,-999.0,86,0.00,,,-99.99,,2013-07-27 04:08:00,
2013-07-26 20:13:00,58.5,54.9,0.00,SSW,197,1.4,-999.0,87,0.00,,,-99.99,,2013-07-27 04:13:00,
2013-07-26 20:18:00,58.0,55.0,0.00,SE,131,0.0,-999.0,89,0.00,,,-99.99,,2013-07-27 04:18:00,
2013-07-26 20:23:00,58.3,55.1,0.00,North,10,0.0,-999.0,88,0.00,,,-99.99,,2013-07-27 04:23:00,
2013-07-26 20:28:00,58.2,55.3,0.00,SSE,151,0.0,-999.0,90,0.00,,,-99.99,,2013-07-27 04:28:00,
2013-07-26 20:33:00,58.3,55.3,0.00,NW,316,0.0,-999.0,89,0.00,,,-99.99,,2013-07-27 04:33:00,
2013-07-26 20:38:00,57.7,53.7,0.00,NW,316,1.6,-999.0,86,0.00,,,-99.99,,2013-07-27 04:38:00,
2013-07-26 20:43:00,57.4,54.2,0.00,NE,43,1.8,-999.0,88,0.00,,,-99.99,,2013-07-27 04:43:00,
2013-07-26 20:48:00,57.3,53.8,0.00,NW,310,2.0,-999.0,87,0.00,,,-99.99,,2013-07-27 04:48:00,
2013-07-26 20:53:00,57.3,53.9,0.00,NNE,32,2.5,-999.0,88,0.00,,,-99.99,,2013-07-27 04:53:00,
2013-07-26 20:58:00,57.7,54.5,0.00,NNE,31,0.0,-999.0,89,0.00,,,-99.99,,2013-07-27 04:58:00,
2013-07-26 21:03:00,57.4,54.2,0.00,NE,38,0.9,-999.0,89,0.00,,,-99.99,,2013-07-27 05:03:00,
2013-07-26 21:08:00,56.9,54.5,0.00,SSE,148,1.8,-999.0,91,0.00,,,-99.99,,2013-07-27 05:08:00,
2013-07-26 21:13:00,56.5,54.5,0.00,NE,51,0.0,-999.0,93,0.00,,,-99.99,,2013-07-27 05:13:00,
2013-07-26 21:18:00,56.2,53.9,0.00,ESE,116,2.1,-999.0,92,0.00,,,-99.99,,2013-07-27 05:18:00,
2013-07-26 21:23:00,55.6,53.8,0.00,East,84,0.8,-999.0,93,0.00,,,-99.99,,2013-07-27 05:23:00,
2013-07-26 21:28:00,54.5,52.9,0.00,ESE,118,4.2,-999.0,94,0.00,,,-99.99,,2013-07-27 05:28:00,
2013-07-26 21:33:00,54.5,53.6,0.00,East,88,2.5,-999.0,96,0.00,,,-99.99,,2013-07-27 05:33:00,
2013-07-26 21:38:00,54.6,53.7,0.00,East,89,2.6,-999.0,96,0.00,,,-99.99,,2013-07-27 05:38:00,
2013-07-26 21:43:00,54.6,53.3,0.00,ESE,107,4.3,-999.0,95,0.00,,,-99.99,,2013-07-27 05:43:00,
2013-07-26 21:48:00,55.4,54.2,0.00,ENE,76,4.7,-999.0,95,0.00,,,-99.99,,2013-07-27 05:48:00,
2013-07-26 21:53:00,56.3,54.5,0.00,East,89,3.5,-999.0,93,0.00,,,-99.99,,2013-07-27 05:53:00,
2013-07-26 21:58:00,56.7,54.5,0.00,NE,56,2.5,-999.0,92,0.00,,,-99.99,,2013-07-27 05:58:00,
2013-07-26 22:03:00,56.8,54.3,0.00,NNE,25,0.5,-999.0,91,0.00,,,-99.99,,2013-07-27 06:03:00,
2013-07-26 22:08:00,56.2,53.6,0.00,NE,44,3.5,-999.0,90,0.00,,,-99.99,,2013-07-27 06:08:00,
2013-07-26 22:13:00,56.4,54.4,0.00,ESE,105,2.4,-999.0,93,0.00,,,-99.99,,2013-07-27 06:13:00,
2013-07-26 22:18:00,56.8,54.4,0.00,SE,128,1.7,-999.0,91,0.00,,,-99.99,,2013-07-27 06:18:00,
2013-07-26 22:23:00,56.6,54.4,0.00,East,94,2.4,-999.0,92,0.00,,,-99.99,,2013-07-27 06:23:00,
2013-07-26 22:28:00,56.8,54.2,0.00,ENE,66,0.8,-999.0,91,0.00,,,-99.99,,2013-07-27 06:28:00,
2013-07-26 22:33:00,57.0,54.7,0.00,ENE,58,1.0,-999.0,91,0.00,,,-99.99,,2013-07-27 06:33:00,
2013-07-26 22:38:00,56.6,54.2,0.00,NE,56,3.9,-999.0,91,0.00,,,-99.99,,2013-07-27 06:38:00,
2013-07-26 22:43:00,55.7,54.1,0.00,ENE,68,3.4,-999.0,94,0.00,,,-99.99,,2013-07-27 06:43:00,
2013-07-26 22:48:00,54.9,53.5,0.00,ENE,60,3.6,-999.0,95,0.00,,,-99.99,,2013-07-27 06:48:00,
2013-07-26 22:53:00,54.9,53.8,0.00,NE,52,5.7,-999.0,95,0.00,,,-99.99,,2013-07-27 06:53:00,
2013-07-26 22:58:00,55.0,53.7,0.00,NE,42,6.4,-999.0,95,0.00,,,-99.99,,2013-07-27 06:58:00,
2013-07-26 23:03:00,55.4,54.1,0.00,NNE,33,6.3,-999.0,95,0.00,,,-99.99,,2013-07-27 07:03:00,
2013-07-26 23:08:00,55.9,54.3,0.00,NE,42,6.1,-999.0,94,0.00,,,-99.99,,2013-07-27 07:08:00,
2013-07-26 23:13:00,56.0,54.2,0.00,NE,56,7.2,-999.0,93,0.00,,,-99.99,,2013-07-27 07:13:00,
2013-07-26 23:18:00,56.2,54.4,0.00,NE,47,6.7,-999.0,93,0.00,,,-99.99,,2013-07-27 07:18:00,
2013-07-26 23:23:00,56.2,54.2,0.00,ENE,62,5.0,-999.0,92,0.00,,,-99.99,,2013-07-27 07:23:00,
2013-07-26 23:28:00,56.2,54.3,0.00,ENE,68,2.6,-999.0,93,0.00,,,-99.99,,2013-07-27 07:28:00,
2013-07-26 23:33:00,55.9,54.0,0.00,ENE,62,3.6,-999.0,93,0.00,,,-99.99,,2013-07-27 07:33:00,
2013-07-26 23:39:00,56.3,54.6,0.00,ENE,71,2.3,-999.0,93,0.00,,,-99.99,,2013-07-27 07:39:00,
2013-07-26 23:44:00,56.9,54.8,0.00,NE,54,2.2,-999.0,92,0.00,,,-99.99,,2013-07-27 07:44:00,
2013-07-26 23:49:00,57.2,54.6,0.00,SE,137,2.4,-999.0,91,0.00,,,-99.99,,2013-07-27 07:49:00,
2013-07-26 23:54:00,56.5,54.3,0.00,North,4,1.6,-999.0,92,0.00,,,-99.99,,2013-07-27 07:54:00,
2013-07-26 23:59:00,56.6,54.5,0.00,SSE,155,1.3,-999.0,92,0.00,,,-99.99,,2013-07-27 07:59:00,